Time;durP1;ratioP1;P1;durP2;ratioP2;P2;SDS_P1;SDS_P2;PMS_P1;PMS_P2;Temp;Humidity;BMP_temperature;BMP_pressure;BME280_temperature;BME280_humidity;BME280_pressure;Samples;Min_cycle;Max_cycle;Signal;HPM_P1;HPM_P2
2023/05/18 00:00:32;;;;;;;;;6.50;4.25;;;;;;;;5046275;28;10183;-77
2023/05/18 00:03:00;;;;;;;;;4.75;3.25;;;;;;;;5039377;28;10364;-79
2023/05/18 00:05:33;;;;;;;;;4.00;4.00;;;;;;;;5035193;28;10238;-77
2023/05/18 00:08:00;;;;;;;;;2.75;2.50;;;;;;;;5042878;28;10283;-78
2023/05/18 00:10:29;;;;;;;;;3.25;3.25;;;;;;;;5032343;28;10339;-77
2023/05/18 00:12:56;;;;;;;;;4.50;3.00;;;;;;;;5041495;28;10340;-79
2023/05/18 00:15:23;;;;;;;;;6.25;5.00;;;;;;;;5048172;28;10546;-79
2023/05/18 00:17:52;;;;;;;;;8.75;4.00;;;;;;;;5047071;28;10589;-78
2023/05/18 00:20:20;;;;;;;;;6.75;3.50;;;;;;;;5048194;28;10479;-77
2023/05/18 00:22:49;;;;;;;;;4.50;4.00;;;;;;;;5047640;28;10536;-78
2023/05/18 00:25:16;;;;;;;;;4.00;4.00;;;;;;;;5047092;28;10443;-77
2023/05/18 00:27:45;;;;;;;;;4.00;3.25;;;;;;;;5037249;28;10548;-77
2023/05/18 00:30:13;;;;;;;;;5.25;5.25;;;;;;;;5041636;28;10506;-79
2023/05/18 00:32:41;;;;;;;;;6.50;4.00;;;;;;;;5042302;28;10372;-77
2023/05/18 00:35:08;;;;;;;;;4.00;4.00;;;;;;;;5046318;28;10461;-78
2023/05/18 00:37:35;;;;;;;;;4.00;4.00;;;;;;;;5038211;28;10582;-79
2023/05/18 00:40:05;;;;;;;;;6.00;4.50;;;;;;;;5047560;28;10475;-80
2023/05/18 00:42:32;;;;;;;;;3.00;3.00;;;;;;;;5039259;28;10619;-79
2023/05/18 00:45:01;;;;;;;;;4.50;4.25;;;;;;;;5044767;28;10594;-80
2023/05/18 00:47:28;;;;;;;;;4.50;4.50;;;;;;;;5041066;28;10594;-80
2023/05/18 00:49:57;;;;;;;;;12.00;10.50;;;;;;;;5043998;28;10713;-78
2023/05/18 00:52:25;;;;;;;;;5.25;5.25;;;;;;;;5047676;28;10873;-77
2023/05/18 00:54:52;;;;;;;;;7.50;6.00;;;;;;;;5040460;28;10752;-78
2023/05/18 00:57:19;;;;;;;;;4.75;4.75;;;;;;;;5038233;28;10726;-80
2023/05/18 00:59:47;;;;;;;;;5.75;5.75;;;;;;;;5042984;28;10766;-76
2023/05/18 01:02:16;;;;;;;;;7.00;3.75;;;;;;;;5040719;28;10591;-77
2023/05/18 01:04:43;;;;;;;;;4.75;4.75;;;;;;;;5044784;28;10668;-79
2023/05/18 01:07:11;;;;;;;;;5.25;5.25;;;;;;;;5047436;28;10698;-77
2023/05/18 01:09:38;;;;;;;;;6.75;5.00;;;;;;;;5042825;28;10746;-78
2023/05/18 01:12:12;;;;;;;;;6.00;4.50;;;;;;;;5027364;28;10590;-77
2023/05/18 01:14:45;;;;;;;;;6.00;5.00;;;;;;;;5037322;28;10696;-77
2023/05/18 01:17:21;;;;;;;;;7.00;5.00;;;;;;;;5047721;28;10786;-77
2023/05/18 01:20:13;;;;;;;;;2.50;2.50;;;;;;;;5042676;28;10811;-77
2023/05/18 01:22:52;;;;;;;;;7.00;7.00;;;;;;;;5046208;28;10673;-77
2023/05/18 01:25:28;;;;;;;;;2.00;2.00;;;;;;;;5036904;28;10844;-77
2023/05/18 01:28:05;;;;;;;;;6.75;6.75;;;;;;;;5039144;28;10724;-78
2023/05/18 01:30:33;;;;;;;;;7.00;5.00;;;;;;;;5041242;28;10901;-78
2023/05/18 01:33:00;;;;;;;;;3.00;3.00;;;;;;;;5035338;28;10847;-77
2023/05/18 01:35:28;;;;;;;;;5.25;5.25;;;;;;;;5043134;28;10913;-76
2023/05/18 01:37:55;;;;;;;;;6.50;6.00;;;;;;;;5036510;28;10933;-77
2023/05/18 01:40:23;;;;;;;;;4.50;4.50;;;;;;;;5040721;28;10959;-76
2023/05/18 01:42:55;;;;;;;;;10.25;6.00;;;;;;;;5031114;28;10937;-77
2023/05/18 01:45:27;;;;;;;;;9.00;6.00;;;;;;;;5041350;28;10930;-76
2023/05/18 01:47:57;;;;;;;;;5.00;5.00;;;;;;;;5048014;28;11007;-78
2023/05/18 01:50:36;;;;;;;;;8.50;6.00;;;;;;;;5051409;28;11110;-78
2023/05/18 01:53:09;;;;;;;;;2.50;2.00;;;;;;;;5047405;28;11129;-79
2023/05/18 01:55:37;;;;;;;;;10.00;8.75;;;;;;;;5047767;28;11105;-78
2023/05/18 01:58:05;;;;;;;;;6.00;6.00;;;;;;;;5044218;28;11100;-76
2023/05/18 02:00:34;;;;;;;;;8.75;7.25;;;;;;;;5040280;28;11062;-79
2023/05/18 02:03:01;;;;;;;;;9.75;7.25;;;;;;;;5045830;28;11230;-77
2023/05/18 02:05:29;;;;;;;;;9.50;7.00;;;;;;;;5049978;28;11103;-77
2023/05/18 02:07:56;;;;;;;;;6.50;5.00;;;;;;;;5040835;28;10807;-77
2023/05/18 02:10:24;;;;;;;;;4.00;2.00;;;;;;;;5050161;28;10976;-80
2023/05/18 02:12:52;;;;;;;;;9.75;8.75;;;;;;;;5048625;28;10813;-79
2023/05/18 02:15:20;;;;;;;;;9.00;9.00;;;;;;;;5050030;28;11089;-77
2023/05/18 02:17:48;;;;;;;;;5.50;5.50;;;;;;;;5037557;28;11219;-77
2023/05/18 02:20:17;;;;;;;;;7.75;7.75;;;;;;;;5049621;28;11057;-78
2023/05/18 02:22:45;;;;;;;;;10.75;7.25;;;;;;;;5050548;28;11130;-78
2023/05/18 02:25:12;;;;;;;;;6.00;6.00;;;;;;;;5049472;28;11101;-77
2023/05/18 02:27:39;;;;;;;;;10.00;10.00;;;;;;;;5045461;28;11270;-78
2023/05/18 02:30:08;;;;;;;;;8.25;8.25;;;;;;;;5050694;28;11285;-77
2023/05/18 02:32:37;;;;;;;;;8.50;8.50;;;;;;;;5048535;28;11069;-80
2023/05/18 02:35:08;;;;;;;;;10.25;10.25;;;;;;;;5046912;28;11159;-78
2023/05/18 02:37:38;;;;;;;;;8.00;8.00;;;;;;;;5038265;28;11089;-78
2023/05/18 02:40:07;;;;;;;;;9.00;6.00;;;;;;;;5047333;28;11051;-77
2023/05/18 02:42:34;;;;;;;;;11.25;7.25;;;;;;;;5049215;28;12058;-77
2023/05/18 02:45:02;;;;;;;;;8.25;8.25;;;;;;;;5048129;28;11071;-78
2023/05/18 02:47:29;;;;;;;;;12.00;9.75;;;;;;;;5040667;28;11079;-79
2023/05/18 02:49:56;;;;;;;;;9.25;9.25;;;;;;;;5048201;28;11898;-77
2023/05/18 02:52:26;;;;;;;;;13.00;9.50;;;;;;;;5048031;28;11988;-79
2023/05/18 02:54:55;;;;;;;;;9.75;9.75;;;;;;;;5049125;28;11261;-78
2023/05/18 02:57:22;;;;;;;;;15.25;9.75;;;;;;;;5049551;28;11469;-77
2023/05/18 02:59:49;;;;;;;;;8.00;8.00;;;;;;;;5047036;28;11533;-76
2023/05/18 03:02:16;;;;;;;;;12.50;11.25;;;;;;;;5043283;28;12205;-76
2023/05/18 03:04:46;;;;;;;;;9.75;9.75;;;;;;;;5042228;28;11259;-77
2023/05/18 03:07:13;;;;;;;;;11.00;9.75;;;;;;;;5045889;28;11510;-76
2023/05/18 03:09:41;;;;;;;;;10.00;8.25;;;;;;;;5035475;28;11509;-77
2023/05/18 03:12:09;;;;;;;;;11.00;9.75;;;;;;;;5042827;28;11441;-77
2023/05/18 03:14:36;;;;;;;;;10.75;10.00;;;;;;;;5048599;28;11544;-77
2023/05/18 03:17:04;;;;;;;;;9.75;8.00;;;;;;;;5048428;28;11489;-77
2023/05/18 03:19:33;;;;;;;;;9.00;6.75;;;;;;;;5044234;28;11505;-77
2023/05/18 03:22:01;;;;;;;;;11.50;11.50;;;;;;;;5043008;28;12229;-77
2023/05/18 03:24:29;;;;;;;;;6.75;6.75;;;;;;;;5045577;28;11623;-77
2023/05/18 03:26:59;;;;;;;;;10.00;8.00;;;;;;;;5046391;28;11449;-77
2023/05/18 03:29:26;;;;;;;;;13.50;11.50;;;;;;;;5035923;28;11486;-78
2023/05/18 03:31:54;;;;;;;;;13.25;9.00;;;;;;;;5044155;28;12328;-77
2023/05/18 03:34:21;;;;;;;;;10.00;8.50;;;;;;;;5045007;28;11486;-77
2023/05/18 03:36:50;;;;;;;;;9.25;9.25;;;;;;;;5048206;28;11534;-77
2023/05/18 03:39:17;;;;;;;;;12.00;10.00;;;;;;;;5043608;28;11523;-76
2023/05/18 03:41:44;;;;;;;;;8.50;8.00;;;;;;;;5033179;28;11637;-77
2023/05/18 03:44:13;;;;;;;;;10.75;10.75;;;;;;;;5040858;28;11557;-77
2023/05/18 03:46:40;;;;;;;;;8.50;6.75;;;;;;;;5048574;28;12263;-79
2023/05/18 03:49:07;;;;;;;;;9.25;9.25;;;;;;;;5045730;28;11651;-79
2023/05/18 03:51:35;;;;;;;;;11.00;9.25;;;;;;;;5030545;28;11491;-77
2023/05/18 03:54:02;;;;;;;;;11.75;10.50;;;;;;;;5040038;28;11584;-81
2023/05/18 03:56:30;;;;;;;;;12.75;12.75;;;;;;;;5048801;28;11504;-80
2023/05/18 03:58:58;;;;;;;;;13.00;13.00;;;;;;;;5034243;28;11538;-77
2023/05/18 04:01:29;;;;;;;;;14.50;12.25;;;;;;;;5042900;28;11439;-77
2023/05/18 04:03:56;;;;;;;;;14.00;14.00;;;;;;;;5042611;28;11512;-77
2023/05/18 04:06:24;;;;;;;;;10.25;10.25;;;;;;;;5032253;28;11506;-79
2023/05/18 04:08:52;;;;;;;;;10.25;9.00;;;;;;;;5037020;28;11477;-77
2023/05/18 04:11:20;;;;;;;;;12.00;10.50;;;;;;;;5045470;28;11577;-78
2023/05/18 04:13:48;;;;;;;;;9.75;9.75;;;;;;;;5046738;28;11482;-77
2023/05/18 04:16:16;;;;;;;;;8.25;7.25;;;;;;;;5048037;28;11482;-77
2023/05/18 04:18:44;;;;;;;;;12.00;9.25;;;;;;;;5047699;28;11535;-78
2023/05/18 04:21:11;;;;;;;;;15.00;13.25;;;;;;;;5047724;28;12323;-78
2023/05/18 04:23:39;;;;;;;;;13.75;10.75;;;;;;;;5047326;28;11522;-80
2023/05/18 04:26:07;;;;;;;;;12.50;9.75;;;;;;;;5047901;28;12268;-79
2023/05/18 04:28:36;;;;;;;;;10.00;10.00;;;;;;;;5037387;28;11545;-79
2023/05/18 04:31:03;;;;;;;;;9.50;8.00;;;;;;;;5037976;28;11438;-80
2023/05/18 04:33:31;;;;;;;;;11.75;11.75;;;;;;;;5046457;28;11587;-78
2023/05/18 04:36:03;;;;;;;;;19.75;16.50;;;;;;;;5043029;28;11535;-79
2023/05/18 04:38:31;;;;;;;;;12.50;10.00;;;;;;;;5032901;28;11473;-79
2023/05/18 04:40:59;;;;;;;;;14.25;12.50;;;;;;;;5036028;28;11529;-79
2023/05/18 04:43:27;;;;;;;;;15.75;12.50;;;;;;;;5040597;28;11507;-77
2023/05/18 04:45:54;;;;;;;;;16.25;10.75;;;;;;;;5034041;28;11624;-79
2023/05/18 04:48:22;;;;;;;;;10.25;10.25;;;;;;;;5046098;28;11521;-78
2023/05/18 04:50:53;;;;;;;;;15.25;13.25;;;;;;;;5038184;28;11515;-79
2023/05/18 04:53:21;;;;;;;;;13.25;11.00;;;;;;;;5044332;28;11523;-79
2023/05/18 04:55:50;;;;;;;;;12.00;12.00;;;;;;;;5039460;28;11613;-78
2023/05/18 04:58:17;;;;;;;;;12.25;11.25;;;;;;;;5047430;28;11633;-78
2023/05/18 05:00:45;;;;;;;;;10.50;10.50;;;;;;;;5037495;28;11431;-78
2023/05/18 05:03:12;;;;;;;;;10.00;10.00;;;;;;;;5035693;28;11461;-78
2023/05/18 05:05:39;;;;;;;;;13.50;9.75;;;;;;;;5040923;28;11548;-77
2023/05/18 05:08:07;;;;;;;;;15.75;12.00;;;;;;;;5046901;28;11471;-77
2023/05/18 05:10:38;;;;;;;;;12.50;12.50;;;;;;;;5035519;28;11623;-78
2023/05/18 05:13:05;;;;;;;;;12.00;10.25;;;;;;;;5038223;28;11584;-79
2023/05/18 05:15:32;;;;;;;;;15.00;12.00;;;;;;;;5042183;28;11587;-78
2023/05/18 05:18:00;;;;;;;;;12.25;12.25;;;;;;;;5038766;28;11550;-76
2023/05/18 05:20:27;;;;;;;;;10.75;10.75;;;;;;;;5044315;28;11483;-78
2023/05/18 05:22:54;;;;;;;;;11.25;10.00;;;;;;;;5039205;28;11540;-78
2023/05/18 05:25:21;;;;;;;;;21.75;17.75;;;;;;;;5050478;28;11154;-78
2023/05/18 05:27:50;;;;;;;;;14.00;14.00;;;;;;;;5050377;28;12468;-79
2023/05/18 05:30:17;;;;;;;;;13.75;13.00;;;;;;;;5036832;28;11525;-76
2023/05/18 05:32:45;;;;;;;;;11.75;9.50;;;;;;;;5043785;28;11619;-79
2023/05/18 05:35:12;;;;;;;;;13.50;12.75;;;;;;;;5046688;28;11626;-78
2023/05/18 05:37:39;;;;;;;;;17.25;15.25;;;;;;;;5048898;28;11528;-79
2023/05/18 05:40:08;;;;;;;;;11.50;11.50;;;;;;;;5038394;28;11545;-80
2023/05/18 05:42:36;;;;;;;;;12.75;11.00;;;;;;;;5057550;28;11323;-78
2023/05/18 05:45:05;;;;;;;;;9.25;8.25;;;;;;;;5031914;28;11518;-79
2023/05/18 05:47:32;;;;;;;;;11.75;11.75;;;;;;;;5047159;28;11451;-78
2023/05/18 05:50:00;;;;;;;;;25.50;19.50;;;;;;;;5042116;28;11530;-78
2023/05/18 05:52:27;;;;;;;;;14.00;14.00;;;;;;;;5050498;28;11228;-77
2023/05/18 05:54:54;;;;;;;;;20.00;14.00;;;;;;;;5042735;28;11260;-80
2023/05/18 05:57:22;;;;;;;;;15.75;12.25;;;;;;;;5041651;28;12318;-78
2023/05/18 05:59:49;;;;;;;;;17.00;15.50;;;;;;;;5045935;28;11284;-80
2023/05/18 06:02:17;;;;;;;;;14.50;14.50;;;;;;;;5044411;28;11166;-79
2023/05/18 06:04:45;;;;;;;;;9.25;9.25;;;;;;;;5038637;28;11514;-78
2023/05/18 06:07:12;;;;;;;;;13.50;13.50;;;;;;;;5045701;28;11167;-79
2023/05/18 06:09:39;;;;;;;;;14.25;12.25;;;;;;;;5050309;28;11070;-80
2023/05/18 06:12:08;;;;;;;;;16.25;14.00;;;;;;;;5045649;28;11051;-78
2023/05/18 06:14:35;;;;;;;;;17.25;13.25;;;;;;;;5050792;28;11108;-81
2023/05/18 06:17:02;;;;;;;;;15.00;14.00;;;;;;;;5046590;28;11243;-77
2023/05/18 06:19:32;;;;;;;;;14.25;13.50;;;;;;;;5050486;28;11929;-80
2023/05/18 06:21:59;;;;;;;;;15.75;12.75;;;;;;;;5049053;28;11170;-80
2023/05/18 06:24:26;;;;;;;;;14.00;14.00;;;;;;;;5050240;28;11230;-78
2023/05/18 06:26:53;;;;;;;;;19.50;15.00;;;;;;;;5045541;28;10862;-79
2023/05/18 06:29:21;;;;;;;;;19.75;15.50;;;;;;;;5048613;28;10888;-78
2023/05/18 06:31:49;;;;;;;;;13.00;13.00;;;;;;;;5049391;28;11119;-79
2023/05/18 06:34:16;;;;;;;;;16.50;14.25;;;;;;;;5048743;28;10917;-78
2023/05/18 06:36:45;;;;;;;;;15.25;14.75;;;;;;;;5046279;28;10808;-79
2023/05/18 06:39:12;;;;;;;;;12.50;12.50;;;;;;;;5050272;28;10890;-79
2023/05/18 06:41:39;;;;;;;;;10.75;10.50;;;;;;;;5047844;28;10824;-77
2023/05/18 06:44:07;;;;;;;;;14.75;11.25;;;;;;;;5049798;28;10730;-78
2023/05/18 06:46:34;;;;;;;;;10.75;10.75;;;;;;;;5032845;28;10686;-87
2023/05/18 06:49:01;;;;;;;;;16.75;14.00;;;;;;;;5043590;28;10706;-78
2023/05/18 06:51:28;;;;;;;;;13.00;13.00;;;;;;;;5051565;28;10872;-78
2023/05/18 06:54:00;;;;;;;;;12.50;11.75;;;;;;;;5053563;28;10627;-84
2023/05/18 06:56:27;;;;;;;;;14.25;12.00;;;;;;;;5050477;28;10487;-80
2023/05/18 06:58:55;;;;;;;;;12.00;12.00;;;;;;;;5043570;28;10746;-84
2023/05/18 07:01:25;;;;;;;;;11.00;8.25;;;;;;;;5050306;28;10668;-86
2023/05/18 07:03:52;;;;;;;;;12.00;11.50;;;;;;;;5046189;28;10574;-82
2023/05/18 07:06:20;;;;;;;;;13.75;12.00;;;;;;;;5046005;28;10587;-83
2023/05/18 07:08:47;;;;;;;;;10.75;8.75;;;;;;;;5050423;28;10256;-81
2023/05/18 07:11:16;;;;;;;;;11.00;11.00;;;;;;;;5035911;28;10196;-79
2023/05/18 07:13:43;;;;;;;;;11.75;11.75;;;;;;;;5039000;28;10337;-81
2023/05/18 07:16:12;;;;;;;;;12.25;12.25;;;;;;;;5047373;28;10278;-79
2023/05/18 07:18:40;;;;;;;;;13.00;8.00;;;;;;;;5047083;28;10193;-75
2023/05/18 07:21:10;;;;;;;;;14.50;13.25;;;;;;;;5047341;28;10261;-75
2023/05/18 07:23:45;;;;;;;;;13.75;12.75;;;;;;;;5047075;28;10223;-78
2023/05/18 07:26:12;;;;;;;;;9.75;9.75;;;;;;;;5049609;28;10200;-76
2023/05/18 07:28:41;;;;;;;;;14.50;12.75;;;;;;;;5036616;28;10118;-75
2023/05/18 07:31:13;;;;;;;;;13.75;13.75;;;;;;;;5056173;28;10071;-76
2023/05/18 07:33:40;;;;;;;;;13.50;12.25;;;;;;;;5048290;28;10041;-76
2023/05/18 07:38:55;;;;;;;;;12.00;12.00;;;;;;;;5028944;28;10118;-76
2023/05/18 07:41:22;;;;;;;;;10.00;8.00;;;;;;;;5048437;28;10076;-75
2023/05/18 07:43:51;;;;;;;;;13.50;11.25;;;;;;;;5039799;28;9912;-78
2023/05/18 07:46:19;;;;;;;;;14.25;13.00;;;;;;;;5035728;28;9895;-77
2023/05/18 07:48:46;;;;;;;;;9.00;7.00;;;;;;;;5048119;28;9709;-77
2023/05/18 07:51:13;;;;;;;;;13.50;13.00;;;;;;;;5053656;28;9655;-79
2023/05/18 07:53:40;;;;;;;;;17.25;12.00;;;;;;;;5053126;28;9666;-80
2023/05/18 07:56:08;;;;;;;;;15.00;13.25;;;;;;;;5034821;28;9727;-77
2023/05/18 07:58:35;;;;;;;;;6.00;6.00;;;;;;;;5042982;28;9712;-80
2023/05/18 08:01:04;;;;;;;;;10.50;10.25;;;;;;;;5042592;28;9690;-80
2023/05/18 08:03:31;;;;;;;;;17.25;15.00;;;;;;;;5047398;28;9614;-80
2023/05/18 08:05:59;;;;;;;;;12.50;12.50;;;;;;;;5039013;28;9816;-80
2023/05/18 08:08:26;;;;;;;;;14.00;11.25;;;;;;;;5042014;28;9613;-79
2023/05/18 08:10:53;;;;;;;;;11.00;10.50;;;;;;;;5047370;28;9571;-79
2023/05/18 08:13:20;;;;;;;;;12.75;11.00;;;;;;;;5042453;28;9621;-79
2023/05/18 08:15:48;;;;;;;;;13.75;13.75;;;;;;;;5047634;28;9698;-78
2023/05/18 08:18:16;;;;;;;;;10.25;10.25;;;;;;;;5048694;28;9547;-77
2023/05/18 08:20:43;;;;;;;;;15.25;13.00;;;;;;;;5047523;28;9608;-79
2023/05/18 08:23:11;;;;;;;;;13.25;11.00;;;;;;;;5043209;28;9459;-79
2023/05/18 08:25:39;;;;;;;;;12.50;10.75;;;;;;;;5039789;28;9469;-79
2023/05/18 08:28:06;;;;;;;;;13.75;13.00;;;;;;;;5045824;28;9622;-80
2023/05/18 08:30:33;;;;;;;;;12.00;11.00;;;;;;;;5045785;28;9356;-81
2023/05/18 08:33:01;;;;;;;;;20.00;11.67;;;;;;;;5052202;28;9438;-80
2023/05/18 08:35:31;;;;;;;;;15.00;11.67;;;;;;;;5036844;28;9555;-79
2023/05/18 08:38:00;;;;;;;;;14.67;10.67;;;;;;;;5047657;28;9354;-79
2023/05/18 08:40:34;;;;;;;;;15.33;15.33;;;;;;;;5047852;28;9006;-80
2023/05/18 08:43:04;;;;;;;;;15.00;12.67;;;;;;;;5047590;28;9416;-80
2023/05/18 08:45:36;;;;;;;;;12.00;11.00;;;;;;;;5047468;28;9330;-80
2023/05/18 08:48:03;;;;;;;;;13.33;10.00;;;;;;;;5038236;28;9109;-78
2023/05/18 08:50:33;;;;;;;;;9.50;9.50;;;;;;;;5044097;28;9021;-78
2023/05/18 08:53:02;;;;;;;;;12.00;11.00;;;;;;;;5046337;28;8867;-79
2023/05/18 08:55:33;;;;;;;;;17.00;13.33;;;;;;;;5048349;28;8866;-78
2023/05/18 08:58:03;;;;;;;;;12.00;10.75;;;;;;;;5048169;28;8942;-87
2023/05/18 09:00:30;;;;;;;;;11.00;11.00;;;;;;;;5047927;28;8824;-81
2023/05/18 09:02:57;;;;;;;;;15.25;13.75;;;;;;;;5040623;28;8990;-80
2023/05/18 09:05:24;;;;;;;;;11.50;9.75;;;;;;;;5036284;28;8888;-78
2023/05/18 09:07:55;;;;;;;;;14.75;11.00;;;;;;;;5049071;28;8865;-82
2023/05/18 09:10:23;;;;;;;;;18.00;14.75;;;;;;;;5038885;28;8860;-79
2023/05/18 09:12:51;;;;;;;;;9.50;9.50;;;;;;;;5040310;28;8852;-76
2023/05/18 09:15:18;;;;;;;;;12.00;8.75;;;;;;;;5039114;28;8853;-79
2023/05/18 09:17:46;;;;;;;;;11.75;10.00;;;;;;;;5047623;28;8865;-80
2023/05/18 09:20:13;;;;;;;;;12.00;10.00;;;;;;;;5046959;28;8857;-78
2023/05/18 09:22:40;;;;;;;;;12.00;11.25;;;;;;;;5046062;28;8845;-76
2023/05/18 09:25:12;;;;;;;;;15.00;9.25;;;;;;;;5046461;28;8858;-77
2023/05/18 09:27:39;;;;;;;;;9.50;8.00;;;;;;;;5039482;28;8970;-77
2023/05/18 09:30:11;;;;;;;;;14.00;11.25;;;;;;;;5043697;28;8846;-76
2023/05/18 09:32:38;;;;;;;;;11.25;9.00;;;;;;;;5043954;28;9719;-76
2023/05/18 09:35:06;;;;;;;;;13.25;9.75;;;;;;;;5046357;28;9729;-76
2023/05/18 09:37:34;;;;;;;;;12.00;11.75;;;;;;;;5046939;28;9547;-77
2023/05/18 09:40:03;;;;;;;;;16.50;14.25;;;;;;;;5046889;28;8869;-78
2023/05/18 09:42:39;;;;;;;;;12.00;12.00;;;;;;;;5046944;28;8964;-77
2023/05/18 09:45:17;;;;;;;;;10.75;10.75;;;;;;;;5037607;28;8869;-78
2023/05/18 09:47:44;;;;;;;;;13.25;9.50;;;;;;;;5045903;28;8857;-78
2023/05/18 09:50:12;;;;;;;;;10.25;8.25;;;;;;;;5043110;28;8881;-77
2023/05/18 09:52:43;;;;;;;;;14.75;11.25;;;;;;;;5043157;28;8887;-76
2023/05/18 09:55:11;;;;;;;;;11.00;9.00;;;;;;;;5045157;28;8905;-75
2023/05/18 09:57:44;;;;;;;;;11.25;11.25;;;;;;;;5034868;28;8860;-76
2023/05/18 10:00:14;;;;;;;;;12.50;11.50;;;;;;;;5043397;28;8881;-75
2023/05/18 10:02:42;;;;;;;;;11.25;11.25;;;;;;;;5045938;28;8850;-75
2023/05/18 10:05:19;;;;;;;;;12.00;12.00;;;;;;;;5047339;28;8873;-76
2023/05/18 10:07:47;;;;;;;;;11.00;9.50;;;;;;;;5031005;28;8867;-74
2023/05/18 10:10:17;;;;;;;;;11.67;10.00;;;;;;;;5040076;28;8836;-75
2023/05/18 10:12:46;;;;;;;;;10.25;9.25;;;;;;;;5042439;28;8869;-78
2023/05/18 10:15:16;;;;;;;;;12.50;11.75;;;;;;;;5055193;28;8956;-78
2023/05/18 10:17:44;;;;;;;;;10.75;10.75;;;;;;;;5044237;28;8987;-76
2023/05/18 10:20:12;;;;;;;;;11.50;9.75;;;;;;;;5051161;28;8866;-76
2023/05/18 10:22:39;;;;;;;;;15.25;12.75;;;;;;;;5043607;28;8866;-75
2023/05/18 10:25:11;;;;;;;;;14.50;13.00;;;;;;;;5047875;28;9601;-77
2023/05/18 10:27:41;;;;;;;;;16.00;15.00;;;;;;;;5050864;28;8869;-76
2023/05/18 10:30:13;;;;;;;;;12.75;9.50;;;;;;;;5049966;28;10698;-77
2023/05/18 10:32:40;;;;;;;;;14.75;12.75;;;;;;;;5036247;28;8840;-78
2023/05/18 10:35:08;;;;;;;;;12.50;11.25;;;;;;;;5046525;28;8833;-79
2023/05/18 10:37:38;;;;;;;;;58.25;42.00;;;;;;;;5040375;28;8859;-75
2023/05/18 10:40:08;;;;;;;;;18.50;13.25;;;;;;;;5047600;28;8861;-78
2023/05/18 10:42:35;;;;;;;;;14.50;14.25;;;;;;;;5050219;28;9758;-81
2023/05/18 10:45:03;;;;;;;;;12.50;12.00;;;;;;;;5050406;28;8854;-74
2023/05/18 10:47:34;;;;;;;;;12.25;11.25;;;;;;;;5041734;28;8850;-78
2023/05/18 10:50:02;;;;;;;;;12.00;10.50;;;;;;;;5050140;28;8873;-79
2023/05/18 10:52:30;;;;;;;;;11.00;8.75;;;;;;;;5049810;28;8876;-78
2023/05/18 10:54:59;;;;;;;;;9.75;9.75;;;;;;;;5048189;28;8974;-76
2023/05/18 10:57:28;;;;;;;;;14.25;12.00;;;;;;;;5049864;28;8877;-76
2023/05/18 10:59:55;;;;;;;;;12.00;10.50;;;;;;;;5045370;28;9002;-76
2023/05/18 11:02:23;;;;;;;;;12.00;11.00;;;;;;;;5039837;28;8782;-77
2023/05/18 11:04:53;;;;;;;;;12.00;9.50;;;;;;;;5049440;28;8868;-76
2023/05/18 11:07:21;;;;;;;;;12.50;11.50;;;;;;;;5043275;28;8865;-75
2023/05/18 11:09:49;;;;;;;;;15.25;13.00;;;;;;;;5038082;28;8848;-77
2023/05/18 11:12:17;;;;;;;;;10.50;9.50;;;;;;;;5045002;28;8880;-76
2023/05/18 11:14:50;;;;;;;;;15.25;12.00;;;;;;;;5043207;28;8829;-79
2023/05/18 11:17:22;;;;;;;;;14.00;14.00;;;;;;;;5047289;28;8892;-76
2023/05/18 11:20:16;;;;;;;;;10.50;8.50;;;;;;;;5049347;28;8931;-77
2023/05/18 11:22:51;;;;;;;;;14.50;10.75;;;;;;;;5039292;28;8976;-78
2023/05/18 11:25:40;;;;;;;;;13.25;11.50;;;;;;;;5048460;28;8852;-78
2023/05/18 11:28:09;;;;;;;;;14.75;12.75;;;;;;;;5042332;28;8947;-77
2023/05/18 11:30:50;;;;;;;;;13.25;13.25;;;;;;;;5042123;28;8903;-77
2023/05/18 11:33:28;;;;;;;;;11.75;10.25;;;;;;;;5046190;28;8850;-77
2023/05/18 11:36:03;;;;;;;;;9.25;9.25;;;;;;;;5049124;28;8892;-77
2023/05/18 11:38:51;;;;;;;;;14.25;11.75;;;;;;;;5041297;28;9754;-77
2023/05/18 11:41:28;;;;;;;;;13.50;9.75;;;;;;;;5048735;28;8868;-75
2023/05/18 11:44:16;;;;;;;;;8.75;8.75;;;;;;;;5050387;28;8884;-78
2023/05/18 11:46:54;;;;;;;;;11.50;10.50;;;;;;;;5040742;28;8892;-78
2023/05/18 11:49:24;;;;;;;;;8.75;6.00;;;;;;;;5047785;28;8891;-78
2023/05/18 11:52:06;;;;;;;;;11.50;10.00;;;;;;;;5039893;28;8873;-79
2023/05/18 11:54:40;;;;;;;;;9.00;9.00;;;;;;;;5047467;28;8846;-79
2023/05/18 11:57:08;;;;;;;;;8.00;7.60;;;;;;;;5047868;28;8846;-78
2023/05/18 11:59:38;;;;;;;;;11.75;8.50;;;;;;;;5049167;28;8884;-79
2023/05/18 12:02:06;;;;;;;;;10.00;7.20;;;;;;;;5047844;28;8903;-79
2023/05/18 12:04:35;;;;;;;;;9.00;9.00;;;;;;;;5043378;28;8858;-79
2023/05/18 12:07:07;;;;;;;;;8.80;8.80;;;;;;;;5046625;28;8857;-79
2023/05/18 12:09:35;;;;;;;;;11.00;10.20;;;;;;;;5049464;28;8854;-77
2023/05/18 12:12:02;;;;;;;;;9.80;9.80;;;;;;;;5048080;28;8876;-77
2023/05/18 12:14:30;;;;;;;;;10.00;9.60;;;;;;;;5048115;28;8852;-79
2023/05/18 12:16:59;;;;;;;;;8.80;8.40;;;;;;;;5043653;28;8863;-79
2023/05/18 12:19:26;;;;;;;;;11.80;10.00;;;;;;;;5048515;28;8885;-77
2023/05/18 12:21:53;;;;;;;;;7.60;6.20;;;;;;;;5045515;28;8841;-77
2023/05/18 12:24:22;;;;;;;;;9.80;7.80;;;;;;;;5047631;28;8861;-80
2023/05/18 12:26:50;;;;;;;;;11.00;10.60;;;;;;;;5048300;28;8864;-78
2023/05/18 12:29:18;;;;;;;;;9.60;8.00;;;;;;;;5048471;28;9668;-79
2023/05/18 12:31:47;;;;;;;;;7.20;7.20;;;;;;;;5036127;28;8810;-79
2023/05/18 12:34:15;;;;;;;;;8.60;8.60;;;;;;;;5031321;28;8848;-76
2023/05/18 12:36:52;;;;;;;;;5.40;5.40;;;;;;;;5044043;28;8974;-82
2023/05/18 12:39:20;;;;;;;;;10.00;9.40;;;;;;;;5035648;28;8857;-78
2023/05/18 12:41:48;;;;;;;;;10.20;9.00;;;;;;;;5043596;28;8964;-80
2023/05/18 12:44:15;;;;;;;;;7.60;6.80;;;;;;;;5037573;28;8862;-77
2023/05/18 12:46:43;;;;;;;;;5.40;5.40;;;;;;;;5042050;28;9002;-79
2023/05/18 12:49:10;;;;;;;;;7.40;7.40;;;;;;;;5046627;28;8869;-83
2023/05/18 12:51:39;;;;;;;;;8.20;8.20;;;;;;;;5047571;28;8959;-76
2023/05/18 12:54:07;;;;;;;;;9.00;9.00;;;;;;;;5047384;28;8860;-81
2023/05/18 12:56:58;;;;;;;;;9.00;6.80;;;;;;;;5041649;28;8960;-82
2023/05/18 12:59:25;;;;;;;;;8.60;7.80;;;;;;;;5039770;28;8888;-80
2023/05/18 13:01:52;;;;;;;;;7.20;7.20;;;;;;;;5043131;28;8826;-80
2023/05/18 13:04:20;;;;;;;;;7.40;4.40;;;;;;;;5047735;28;8857;-79
2023/05/18 13:06:48;;;;;;;;;7.80;6.60;;;;;;;;5047606;28;8992;-79
2023/05/18 13:09:15;;;;;;;;;7.60;7.20;;;;;;;;5048442;28;8867;-80
2023/05/18 13:11:50;;;;;;;;;7.60;6.60;;;;;;;;5048194;28;9055;-80
2023/05/18 13:14:22;;;;;;;;;9.20;9.20;;;;;;;;5048365;28;8826;-79
2023/05/18 13:16:51;;;;;;;;;8.80;7.40;;;;;;;;5046728;28;8861;-79
2023/05/18 13:19:19;;;;;;;;;8.00;8.00;;;;;;;;5047307;28;8916;-79
2023/05/18 13:21:47;;;;;;;;;6.00;5.00;;;;;;;;5046670;28;8876;-80
2023/05/18 13:24:14;;;;;;;;;10.20;8.40;;;;;;;;5047333;28;8849;-79
2023/05/18 13:26:41;;;;;;;;;8.60;8.60;;;;;;;;5046805;28;8877;-80
2023/05/18 13:29:08;;;;;;;;;9.20;8.20;;;;;;;;5047728;28;9026;-79
2023/05/18 13:31:37;;;;;;;;;8.80;8.60;;;;;;;;5047098;28;8817;-77
2023/05/18 13:34:04;;;;;;;;;5.00;5.00;;;;;;;;5047540;28;8865;-80
2023/05/18 13:36:34;;;;;;;;;8.80;8.80;;;;;;;;5047596;28;8849;-81
2023/05/18 13:39:04;;;;;;;;;7.60;7.60;;;;;;;;5047229;28;8889;-79
2023/05/18 13:41:31;;;;;;;;;11.00;10.00;;;;;;;;5047339;28;8868;-78
2023/05/18 13:43:58;;;;;;;;;11.20;10.00;;;;;;;;5049629;28;9003;-81
2023/05/18 13:46:26;;;;;;;;;9.20;7.40;;;;;;;;5051880;28;8863;-82
2023/05/18 13:48:54;;;;;;;;;10.60;8.80;;;;;;;;5050948;28;8883;-79
2023/05/18 13:51:22;;;;;;;;;6.60;5.00;;;;;;;;5051285;28;8845;-81
2023/05/18 13:53:49;;;;;;;;;11.20;9.40;;;;;;;;5050645;28;8865;-79
2023/05/18 13:56:16;;;;;;;;;10.00;8.20;;;;;;;;5050430;28;8953;-81
2023/05/18 13:58:43;;;;;;;;;8.20;8.20;;;;;;;;5050840;28;8865;-79
2023/05/18 14:01:11;;;;;;;;;11.60;11.20;;;;;;;;5049985;28;8808;-79
2023/05/18 14:03:39;;;;;;;;;10.60;10.60;;;;;;;;5051580;28;8827;-80
2023/05/18 14:06:08;;;;;;;;;9.80;9.00;;;;;;;;5051601;28;8861;-81
2023/05/18 14:08:35;;;;;;;;;9.00;9.00;;;;;;;;5051032;28;8896;-80
2023/05/18 14:11:02;;;;;;;;;11.00;9.00;;;;;;;;5051475;28;8854;-81
2023/05/18 14:13:29;;;;;;;;;11.20;8.80;;;;;;;;5050499;28;8862;-81
2023/05/18 14:15:57;;;;;;;;;9.60;9.60;;;;;;;;5050345;28;8879;-80
2023/05/18 14:18:24;;;;;;;;;9.80;9.80;;;;;;;;5047542;28;9754;-80
2023/05/18 14:20:51;;;;;;;;;8.20;8.20;;;;;;;;5051495;28;9008;-81
2023/05/18 14:23:20;;;;;;;;;8.00;8.00;;;;;;;;5052458;28;9743;-81
2023/05/18 14:25:47;;;;;;;;;9.00;9.00;;;;;;;;5052103;28;9019;-81
2023/05/18 14:28:14;;;;;;;;;9.60;8.00;;;;;;;;5041900;28;8867;-81
2023/05/18 14:30:41;;;;;;;;;9.40;6.20;;;;;;;;5035732;28;8792;-80
2023/05/18 14:33:08;;;;;;;;;6.20;6.20;;;;;;;;5045377;28;8845;-81
2023/05/18 14:35:36;;;;;;;;;8.00;8.00;;;;;;;;5045493;28;8939;-81
2023/05/18 14:38:03;;;;;;;;;7.00;7.00;;;;;;;;5044199;28;9792;-80
2023/05/18 14:40:32;;;;;;;;;6.00;6.00;;;;;;;;5038852;28;8996;-80
2023/05/18 14:42:59;;;;;;;;;6.00;6.00;;;;;;;;5049653;28;8887;-79
2023/05/18 14:45:26;;;;;;;;;9.40;7.00;;;;;;;;5049980;28;8845;-81
2023/05/18 14:47:53;;;;;;;;;7.80;6.00;;;;;;;;5049400;28;8857;-79